Time;durP1;ratioP1;P1;durP2;ratioP2;P2;SDS_P1;SDS_P2;PMS_P1;PMS_P2;Temp;Humidity;BMP_temperature;BMP_pressure;BME280_temperature;BME280_humidity;BME280_pressure;Samples;Min_cycle;Max_cycle;Signal;HPM_P1;HPM_P2
2022/07/03 00:02:11;;;;;;;1.90;1.33;;;;;16.30;94411.00;;;;7393249;19;20140;-76
2022/07/03 00:04:39;;;;;;;4.43;1.55;;;;;16.10;94424.00;;;;7392608;19;20136;-76
2022/07/03 00:07:22;;;;;;;2.72;1.13;;;;;15.90;94419.00;;;;7393519;19;20519;-76
2022/07/03 00:09:50;;;;;;;3.13;1.38;;;;;15.80;94413.00;;;;7391583;19;20157;-76
2022/07/03 00:12:25;;;;;;;1.23;1.13;;;;;15.80;94418.00;;;;7391890;19;20220;-75
2022/07/03 00:14:53;;;;;;;1.83;1.13;;;;;15.80;94411.00;;;;7392392;19;20458;-76
2022/07/03 00:17:21;;;;;;;2.35;1.30;;;;;15.90;94416.00;;;;7392226;19;20583;-77
2022/07/03 00:19:55;;;;;;;3.85;1.45;;;;;16.10;94417.00;;;;7391958;19;20171;-76
2022/07/03 00:22:25;;;;;;;1.98;1.23;;;;;15.90;94413.00;;;;7392775;19;20140;-76
2022/07/03 00:25:05;;;;;;;1.15;1.15;;;;;16.00;94416.00;;;;7392674;19;20184;-76
2022/07/03 00:27:43;;;;;;;2.63;1.10;;;;;16.10;94421.00;;;;7391519;19;20137;-76
2022/07/03 00:30:11;;;;;;;2.15;1.30;;;;;16.00;94416.00;;;;7379516;19;20547;-76
2022/07/03 00:32:41;;;;;;;1.67;1.10;;;;;16.20;94415.00;;;;7393433;19;20139;-77
2022/07/03 00:35:17;;;;;;;1.92;1.10;;;;;16.10;94408.00;;;;7393276;19;20650;-76
2022/07/03 00:37:47;;;;;;;1.75;1.05;;;;;16.10;94412.00;;;;7394867;19;20459;-76
2022/07/03 00:40:14;;;;;;;1.65;1.20;;;;;16.30;94410.00;;;;7395344;19;20619;-76
2022/07/03 00:42:52;;;;;;;2.75;1.20;;;;;16.40;94410.00;;;;7395023;19;20129;-76
2022/07/03 00:45:20;;;;;;;3.35;1.20;;;;;16.30;94404.00;;;;7393196;19;20144;-77
2022/07/03 00:47:49;;;;;;;1.17;1.08;;;;;16.30;94404.00;;;;7392980;19;20573;-76
2022/07/03 00:50:34;;;;;;;1.45;1.20;;;;;16.20;94402.00;;;;7390038;19;20140;-76
2022/07/03 00:53:08;;;;;;;1.75;1.00;;;;;16.10;94402.00;;;;7392154;19;20135;-77
2022/07/03 00:55:47;;;;;;;4.35;1.15;;;;;16.10;94411.00;;;;7390602;19;20145;-77
2022/07/03 00:58:19;;;;;;;2.03;1.23;;;;;16.20;94416.00;;;;7390597;19;20148;-77
2022/07/03 01:00:54;;;;;;;1.88;1.20;;;;;16.30;94411.00;;;;7391205;19;20129;-76
2022/07/03 01:03:26;;;;;;;3.95;1.02;;;;;16.40;94412.00;;;;7389545;19;20140;-74
2022/07/03 01:06:09;;;;;;;3.38;1.40;;;;;16.30;94408.00;;;;7387892;19;20204;-75
2022/07/03 01:08:49;;;;;;;3.58;1.10;;;;;16.40;94412.00;;;;7389015;19;20147;-74
2022/07/03 01:11:36;;;;;;;0.95;0.95;;;;;16.40;94410.00;;;;7390565;19;20133;-75
2022/07/03 01:14:43;;;;;;;3.00;1.23;;;;;16.30;94407.00;;;;7391444;19;20457;-74
2022/07/03 01:17:30;;;;;;;1.92;1.15;;;;;16.40;94417.00;;;;7392000;19;20174;-75
2022/07/03 01:20:06;;;;;;;4.25;1.45;;;;;16.50;94415.00;;;;7391438;19;20116;-76
2022/07/03 01:22:43;;;;;;;1.27;1.17;;;;;16.60;94420.00;;;;7391516;19;20143;-75
2022/07/03 01:25:26;;;;;;;1.45;1.10;;;;;16.60;94418.00;;;;7391782;19;20513;-76
2022/07/03 01:28:14;;;;;;;1.75;1.20;;;;;16.60;94417.00;;;;7390091;19;20153;-76
2022/07/03 01:30:51;;;;;;;4.45;1.27;;;;;16.60;94413.00;;;;7393625;19;20461;-76
2022/07/03 01:33:30;;;;;;;1.90;1.20;;;;;16.40;94418.00;;;;7397454;19;20160;-76
2022/07/03 01:36:12;;;;;;;2.10;1.00;;;;;16.30;94420.00;;;;7395892;19;20667;-75
2022/07/03 01:38:48;;;;;;;1.42;1.30;;;;;16.40;94408.00;;;;7398815;19;20125;-75
2022/07/03 01:41:16;;;;;;;1.23;0.93;;;;;16.30;94404.00;;;;7398304;19;20128;-75
2022/07/03 01:43:55;;;;;;;1.23;1.13;;;;;16.20;94401.00;;;;7399168;19;20149;-76
2022/07/03 01:46:31;;;;;;;1.10;1.10;;;;;16.10;94403.00;;;;7398612;19;20172;-74
2022/07/03 01:49:00;;;;;;;1.48;1.10;;;;;16.00;94398.00;;;;7398783;19;20141;-76
2022/07/03 01:51:31;;;;;;;2.67;1.23;;;;;16.00;94401.00;;;;7396847;19;20145;-75
2022/07/03 01:54:06;;;;;;;1.95;1.20;;;;;16.10;94403.00;;;;7399665;19;20153;-76
2022/07/03 01:56:34;;;;;;;1.25;1.15;;;;;16.00;94407.00;;;;7398154;19;20587;-75
2022/07/03 01:59:03;;;;;;;1.52;1.10;;;;;16.00;94405.00;;;;7398679;19;20129;-76
2022/07/03 02:01:47;;;;;;;1.25;1.15;;;;;15.90;94399.00;;;;7395831;19;20153;-75
2022/07/03 02:04:38;;;;;;;1.30;1.20;;;;;16.00;94393.00;;;;7395356;19;21036;-76
2022/07/03 02:07:26;;;;;;;2.50;1.40;;;;;15.90;94394.00;;;;7394682;19;20155;-76
2022/07/03 02:10:09;;;;;;;2.35;1.40;;;;;15.80;94396.00;;;;7395529;19;20156;-75
2022/07/03 02:13:02;;;;;;;2.50;1.10;;;;;15.80;94393.00;;;;7396614;19;20113;-76
2022/07/03 02:15:34;;;;;;;1.60;1.30;;;;;15.90;94394.00;;;;7397429;19;20117;-75
2022/07/03 02:18:28;;;;;;;3.00;1.40;;;;;16.00;94392.00;;;;7395190;19;20117;-76
2022/07/03 02:21:04;;;;;;;4.03;1.17;;;;;16.00;94389.00;;;;7396521;19;20993;-75
2022/07/03 02:24:02;;;;;;;1.58;1.23;;;;;15.90;94390.00;;;;7395049;19;20141;-75
2022/07/03 02:26:42;;;;;;;1.48;1.33;;;;;15.80;94385.00;;;;7395911;19;20160;-75
2022/07/03 02:29:58;;;;;;;1.00;1.00;;;;;15.70;94398.00;;;;7397672;19;20591;-76
2022/07/03 02:32:30;;;;;;;1.23;1.13;;;;;15.70;94395.00;;;;7394748;19;20169;-75
2022/07/03 02:35:10;;;;;;;2.05;1.10;;;;;15.60;94397.00;;;;7395975;19;20121;-76
2022/07/03 02:38:08;;;;;;;3.05;1.30;;;;;15.50;94392.00;;;;7395028;19;20125;-76
2022/07/03 02:41:19;;;;;;;1.40;0.98;;;;;15.50;94392.00;;;;7395040;19;20587;-76
2022/07/03 02:44:04;;;;;;;2.65;1.10;;;;;15.40;94401.00;;;;7395223;19;20158;-76
2022/07/03 02:46:54;;;;;;;1.25;1.13;;;;;15.30;94406.00;;;;7396055;19;20132;-75
2022/07/03 02:49:52;;;;;;;1.40;1.30;;;;;15.30;94404.00;;;;7394214;19;20554;-76
2022/07/03 02:52:34;;;;;;;1.15;1.08;;;;;15.30;94404.00;;;;7393460;19;20124;-75
2022/07/03 02:55:33;;;;;;;1.20;1.10;;;;;15.40;94401.00;;;;7393858;19;20144;-76
2022/07/03 02:58:32;;;;;;;1.63;1.27;;;;;15.30;94405.00;;;;7392864;19;20137;-76
2022/07/03 03:01:12;;;;;;;1.60;1.35;;;;;15.30;94402.00;;;;7394321;19;20161;-75
2022/07/03 03:04:39;;;;;;;2.15;1.30;;;;;15.30;94411.00;;;;7392100;19;20538;-75
2022/07/03 03:07:22;;;;;;;1.27;1.13;;;;;15.30;94405.00;;;;7392225;19;20210;-75
2022/07/03 03:10:04;;;;;;;1.20;1.10;;;;;15.10;94408.00;;;;7393481;19;20144;-76
2022/07/03 03:12:37;;;;;;;2.00;1.15;;;;;14.90;94408.00;;;;7394570;19;20148;-75
2022/07/03 03:15:15;;;;;;;1.80;1.33;;;;;15.00;94413.00;;;;7395661;19;20599;-75
2022/07/03 03:17:47;;;;;;;1.30;1.20;;;;;15.00;94408.00;;;;7391894;19;20199;-75
2022/07/03 03:20:29;;;;;;;1.40;1.27;;;;;14.90;94409.00;;;;7392700;19;20128;-76
2022/07/03 03:23:16;;;;;;;1.83;1.30;;;;;14.80;94412.00;;;;7393909;19;20616;-76
2022/07/03 03:25:53;;;;;;;1.95;1.30;;;;;14.70;94410.00;;;;7395210;19;20124;-75
2022/07/03 03:28:21;;;;;;;1.52;1.17;;;;;14.70;94416.00;;;;7393620;19;20128;-75
2022/07/03 03:30:49;;;;;;;1.48;1.30;;;;;14.80;94412.00;;;;7390641;19;20129;-76
2022/07/03 03:33:24;;;;;;;1.40;1.30;;;;;14.80;94416.00;;;;7395553;19;20129;-75
2022/07/03 03:35:52;;;;;;;1.35;1.20;;;;;14.70;94427.00;;;;7393071;19;20144;-75
2022/07/03 03:38:19;;;;;;;1.35;1.15;;;;;14.60;94423.00;;;;7391867;19;20156;-76
2022/07/03 03:40:54;;;;;;;2.17;1.40;;;;;14.60;94423.00;;;;7393566;19;20212;-76
2022/07/03 03:43:21;;;;;;;1.30;1.20;;;;;14.60;94423.00;;;;7392358;19;20602;-75
2022/07/03 03:45:49;;;;;;;1.40;1.30;;;;;14.60;94425.00;;;;7393613;19;20145;-75
2022/07/03 03:48:24;;;;;;;1.40;1.30;;;;;14.60;94422.00;;;;7394603;19;20583;-76
2022/07/03 03:50:51;;;;;;;1.73;1.20;;;;;14.60;94424.00;;;;7393692;19;20125;-75
2022/07/03 03:53:20;;;;;;;1.30;1.20;;;;;14.60;94426.00;;;;7389841;19;20495;-75
2022/07/03 03:56:14;;;;;;;1.58;1.40;;;;;14.50;94422.00;;;;7393979;19;20108;-75
2022/07/03 03:58:43;;;;;;;1.20;1.10;;;;;14.60;94426.00;;;;7394587;19;20749;-75
2022/07/03 04:01:17;;;;;;;1.38;1.27;;;;;14.70;94432.00;;;;7391759;19;20124;-75
2022/07/03 04:03:45;;;;;;;1.52;1.30;;;;;14.60;94444.00;;;;7393377;19;20209;-75
2022/07/03 04:06:12;;;;;;;3.15;1.30;;;;;14.70;94429.00;;;;7391897;19;20147;-76
2022/07/03 04:09:00;;;;;;;3.55;1.40;;;;;14.70;94438.00;;;;7392517;19;20159;-76
2022/07/03 04:11:27;;;;;;;1.13;1.10;;;;;14.70;94438.00;;;;7393305;19;20147;-75
2022/07/03 04:14:01;;;;;;;3.70;1.40;;;;;14.70;94440.00;;;;7392860;19;20128;-75
2022/07/03 04:16:29;;;;;;;1.15;1.13;;;;;14.80;94448.00;;;;7393839;19;20189;-75
2022/07/03 04:18:56;;;;;;;1.50;1.40;;;;;14.80;94452.00;;;;7391230;19;20143;-76
2022/07/03 04:21:30;;;;;;;1.63;1.30;;;;;15.00;94446.00;;;;7391601;19;20145;-76
2022/07/03 04:23:58;;;;;;;1.85;1.40;;;;;15.20;94438.00;;;;7393795;19;20579;-76
2022/07/03 04:26:25;;;;;;;2.58;1.40;;;;;15.50;94442.00;;;;7391067;19;20153;-76
2022/07/03 04:28:59;;;;;;;2.13;1.27;;;;;15.70;94437.00;;;;7386975;19;20155;-76
2022/07/03 04:31:27;;;;;;;1.55;1.45;;;;;15.80;94436.00;;;;7386201;19;20614;-74
2022/07/03 04:33:54;;;;;;;4.65;1.30;;;;;16.00;94443.00;;;;7390996;19;20454;-75
2022/07/03 04:36:28;;;;;;;2.15;1.13;;;;;16.00;94445.00;;;;7394028;19;20244;-75
2022/07/03 04:38:55;;;;;;;2.33;1.40;;;;;16.30;94445.00;;;;7393922;19;20204;-75
2022/07/03 04:41:23;;;;;;;1.20;1.10;;;;;16.40;94447.00;;;;7391735;19;20603;-75
2022/07/03 04:43:57;;;;;;;1.55;1.30;;;;;16.50;94441.00;;;;7393632;19;20195;-75
2022/07/03 04:46:25;;;;;;;1.52;1.33;;;;;16.80;94451.00;;;;7393016;19;20141;-75
2022/07/03 04:48:52;;;;;;;1.30;1.00;;;;;16.90;94444.00;;;;7395487;19;20603;-75
2022/07/03 04:51:26;;;;;;;1.80;1.38;;;;;17.20;94447.00;;;;7391997;19;20142;-75
2022/07/03 04:53:54;;;;;;;3.58;1.20;;;;;17.40;94441.00;;;;7391499;19;20603;-75
2022/07/03 04:56:21;;;;;;;2.55;1.30;;;;;17.60;94441.00;;;;7394435;19;20133;-74
2022/07/03 04:58:55;;;;;;;2.60;1.13;;;;;17.80;94444.00;;;;7395993;19;20141;-76
2022/07/03 05:01:22;;;;;;;2.90;0.90;;;;;18.00;94443.00;;;;7391984;19;20121;-75
2022/07/03 05:03:50;;;;;;;2.28;1.02;;;;;18.20;94435.00;;;;7391269;19;20215;-75
2022/07/03 05:06:24;;;;;;;1.48;1.15;;;;;18.40;94433.00;;;;7393299;19;20225;-75
2022/07/03 05:09:05;;;;;;;1.13;1.02;;;;;18.60;94429.00;;;;7391199;19;20153;-75
2022/07/03 05:11:40;;;;;;;2.50;1.20;;;;;18.80;94436.00;;;;7390199;19;20144;-75
2022/07/03 05:14:08;;;;;;;1.20;1.02;;;;;19.00;94425.00;;;;7391556;19;20212;-76
2022/07/03 05:16:36;;;;;;;2.35;1.10;;;;;19.10;94440.00;;;;7394426;19;20156;-74
2022/07/03 05:19:10;;;;;;;1.27;1.13;;;;;19.30;94438.00;;;;7391659;19;20120;-74
2022/07/03 05:21:38;;;;;;;0.98;0.85;;;;;19.40;94435.00;;;;7390429;19;20516;-75
2022/07/03 05:24:06;;;;;;;1.02;0.90;;;;;19.60;94438.00;;;;7390119;19;20129;-73
2022/07/03 05:26:41;;;;;;;1.05;0.80;;;;;19.70;94437.00;;;;7393629;19;20841;-74
2022/07/03 05:29:08;;;;;;;1.20;1.10;;;;;19.80;94432.00;;;;7390795;19;20592;-76
2022/07/03 05:31:36;;;;;;;0.80;0.80;;;;;20.00;94443.00;;;;7388477;19;20490;-76
2022/07/03 05:34:10;;;;;;;2.80;1.25;;;;;20.20;94433.00;;;;7387793;19;20515;-76
2022/07/03 05:36:38;;;;;;;1.58;1.23;;;;;20.30;94429.00;;;;7392128;19;20141;-76
2022/07/03 05:41:58;;;;;;;2.55;0.88;;;;;20.60;94432.00;;;;7389929;19;20185;-77
2022/07/03 05:44:26;;;;;;;1.08;0.80;;;;;20.70;94436.00;;;;7394007;19;20124;-76
2022/07/03 05:46:53;;;;;;;3.72;0.82;;;;;20.80;94417.00;;;;7396695;19;20129;-76
2022/07/03 05:49:27;;;;;;;0.82;0.77;;;;;21.00;94421.00;;;;7392093;19;20484;-76
2022/07/03 05:51:55;;;;;;;0.88;0.88;;;;;21.10;94427.00;;;;7393752;19;20125;-76
2022/07/03 05:54:22;;;;;;;1.35;0.85;;;;;21.10;94426.00;;;;7394397;19;20484;-76
2022/07/03 05:56:56;;;;;;;2.72;0.77;;;;;21.20;94429.00;;;;7396079;19;20128;-76
2022/07/03 05:59:24;;;;;;;2.03;1.00;;;;;21.40;94422.00;;;;7392800;19;20145;-76
2022/07/03 06:01:51;;;;;;;1.05;0.82;;;;;21.50;94433.00;;;;7392983;19;20129;-76
2022/07/03 06:04:25;;;;;;;0.60;0.60;;;;;21.50;94435.00;;;;7391454;19;20160;-76
2022/07/03 06:07:06;;;;;;;0.77;0.63;;;;;21.70;94426.00;;;;7394505;19;20129;-76
2022/07/03 06:09:40;;;;;;;1.45;0.73;;;;;21.80;94422.00;;;;7390387;19;20136;-76
2022/07/03 06:12:11;;;;;;;1.25;0.95;;;;;21.80;94435.00;;;;7387809;19;20182;-76
2022/07/03 06:14:39;;;;;;;1.30;0.80;;;;;21.90;94433.00;;;;7390577;19;20144;-76
2022/07/03 06:17:13;;;;;;;1.20;0.88;;;;;22.00;94434.00;;;;7395340;19;20142;-76
2022/07/03 06:19:41;;;;;;;1.52;0.95;;;;;22.10;94439.00;;;;7400004;19;20610;-76
2022/07/03 06:22:09;;;;;;;3.35;1.00;;;;;22.20;94445.00;;;;7397142;19;20140;-76
2022/07/03 06:24:43;;;;;;;2.40;0.95;;;;;22.30;94452.00;;;;7397446;19;20271;-76
2022/07/03 06:27:11;;;;;;;1.35;0.95;;;;;22.30;94447.00;;;;7397996;19;20109;-76
2022/07/03 06:29:45;;;;;;;2.53;0.90;;;;;22.30;94457.00;;;;7394090;19;20614;-75
2022/07/03 06:32:19;;;;;;;1.08;0.85;;;;;22.40;94455.00;;;;7397093;19;20168;-74
2022/07/03 06:34:48;;;;;;;0.80;0.80;;;;;22.60;94441.00;;;;7398542;19;20235;-74
2022/07/03 06:37:15;;;;;;;1.10;0.82;;;;;22.70;94455.00;;;;7396644;19;20635;-74
2022/07/03 06:39:49;;;;;;;1.30;0.90;;;;;22.60;94456.00;;;;7396272;19;20144;-75
2022/07/03 06:42:17;;;;;;;1.33;0.70;;;;;22.80;94456.00;;;;7396427;19;20592;-76
2022/07/03 06:44:45;;;;;;;2.65;0.73;;;;;22.80;94456.00;;;;7397774;19;20229;-75
2022/07/03 06:47:19;;;;;;;0.57;0.57;;;;;22.90;94460.00;;;;7396484;19;20148;-76
2022/07/03 06:49:47;;;;;;;1.00;0.85;;;;;22.90;94453.00;;;;7397076;19;20146;-75
2022/07/03 06:52:14;;;;;;;0.95;0.73;;;;;22.70;94458.00;;;;7395681;19;20140;-75
2022/07/03 06:54:48;;;;;;;3.72;0.90;;;;;22.80;94459.00;;;;7399484;19;20146;-75
2022/07/03 06:57:16;;;;;;;1.00;0.90;;;;;22.90;94461.00;;;;7394917;19;20109;-75
2022/07/03 06:59:43;;;;;;;2.60;0.90;;;;;23.00;94456.00;;;;7396622;19;20496;-76
2022/07/03 07:02:17;;;;;;;3.60;1.00;;;;;23.10;94466.00;;;;7396269;19;20179;-76
2022/07/03 07:04:45;;;;;;;0.70;0.70;;;;;23.10;94468.00;;;;7398877;19;20149;-74
2022/07/03 07:07:12;;;;;;;0.73;0.73;;;;;23.20;94459.00;;;;7395014;19;20129;-73
2022/07/03 07:09:53;;;;;;;1.15;0.70;;;;;23.30;94455.00;;;;7393942;19;20623;-73
2022/07/03 07:12:25;;;;;;;1.92;0.90;;;;;23.30;94456.00;;;;7392768;19;20176;-73
2022/07/03 07:15:05;;;;;;;1.05;0.70;;;;;23.50;94467.00;;;;7400524;19;20447;-75
2022/07/03 07:17:33;;;;;;;1.13;1.10;;;;;23.40;94459.00;;;;7395685;19;20131;-74
2022/07/03 07:20:08;;;;;;;0.70;0.70;;;;;23.40;94453.00;;;;7393559;19;20128;-74
2022/07/03 07:22:35;;;;;;;1.02;0.80;;;;;23.60;94459.00;;;;7397127;19;20129;-75
2022/07/03 07:25:03;;;;;;;0.70;0.70;;;;;23.90;94460.00;;;;7397227;19;20753;-73
2022/07/03 07:27:37;;;;;;;2.42;0.82;;;;;23.90;94470.00;;;;7393977;19;20499;-74
2022/07/03 07:30:05;;;;;;;0.70;0.70;;;;;23.80;94473.00;;;;7391792;19;20682;-76
2022/07/03 07:32:33;;;;;;;2.35;1.20;;;;;23.80;94474.00;;;;7395847;19;20136;-76
2022/07/03 07:35:08;;;;;;;1.15;0.73;;;;;23.90;94461.00;;;;7396697;19;20140;-76
2022/07/03 07:37:35;;;;;;;1.35;0.77;;;;;24.00;94461.00;;;;7394522;19;20224;-75
2022/07/03 07:40:04;;;;;;;2.40;0.93;;;;;23.80;94457.00;;;;7396209;19;20138;-76
2022/07/03 07:42:38;;;;;;;1.20;0.90;;;;;23.90;94458.00;;;;7396356;19;20132;-76
2022/07/03 07:45:07;;;;;;;2.65;1.20;;;;;24.10;94459.00;;;;7393722;19;20168;-76
2022/07/03 07:47:34;;;;;;;4.50;0.88;;;;;24.10;94457.00;;;;7391439;19;20614;-75
2022/07/03 07:50:09;;;;;;;2.58;0.93;;;;;24.40;94466.00;;;;7394601;19;20156;-76
2022/07/03 07:52:37;;;;;;;2.17;1.10;;;;;24.50;94459.00;;;;7395438;19;20188;-75
2022/07/03 07:55:06;;;;;;;0.80;0.80;;;;;24.80;94458.00;;;;7395159;19;20555;-75
2022/07/03 07:57:41;;;;;;;0.70;0.70;;;;;24.70;94450.00;;;;7393742;19;20596;-74
2022/07/03 08:00:11;;;;;;;1.92;0.90;;;;;25.10;94466.00;;;;7393361;19;20710;-75
2022/07/03 08:05:37;;;;;;;4.28;0.90;;;;;25.40;94462.00;;;;7393909;19;20599;-75
2022/07/03 08:08:19;;;;;;;0.73;0.73;;;;;25.20;94465.00;;;;7392552;19;20199;-75
2022/07/03 08:11:00;;;;;;;2.35;0.80;;;;;25.30;94451.00;;;;7393364;19;20175;-75
2022/07/03 08:13:28;;;;;;;3.60;0.80;;;;;25.40;94451.00;;;;7391131;19;20619;-75
2022/07/03 08:16:01;;;;;;;0.98;0.98;;;;;25.30;94456.00;;;;7395882;19;20583;-76
2022/07/03 08:18:29;;;;;;;0.82;0.80;;;;;25.20;94460.00;;;;7395257;19;20155;-74
2022/07/03 08:20:57;;;;;;;2.47;0.70;;;;;25.10;94461.00;;;;7399019;19;20623;-74
2022/07/03 08:23:31;;;;;;;1.25;0.90;;;;;25.20;94456.00;;;;7394940;19;20125;-75
2022/07/03 08:25:59;;;;;;;1.23;0.93;;;;;25.30;94453.00;;;;7390899;19;20216;-74
2022/07/03 08:28:27;;;;;;;3.55;0.77;;;;;25.50;94447.00;;;;7393609;19;20200;-75
2022/07/03 08:31:01;;;;;;;0.70;0.70;;;;;25.50;94454.00;;;;7395717;19;20188;-75
2022/07/03 08:33:29;;;;;;;0.93;0.90;;;;;25.60;94457.00;;;;7389453;19;20139;-75
2022/07/03 08:36:07;;;;;;;1.13;0.90;;;;;25.60;94461.00;;;;7393929;19;20123;-75
2022/07/03 08:38:42;;;;;;;1.65;1.02;;;;;25.70;94447.00;;;;7392224;19;20139;-76
2022/07/03 08:41:10;;;;;;;0.82;0.80;;;;;25.80;94447.00;;;;7393358;19;20638;-75
2022/07/03 08:43:41;;;;;;;0.80;0.80;;;;;25.70;94453.00;;;;7391223;19;20583;-75
2022/07/03 08:46:15;;;;;;;2.15;1.08;;;;;25.70;94450.00;;;;7392167;19;20501;-76
2022/07/03 08:48:45;;;;;;;1.25;0.95;;;;;26.10;94453.00;;;;7395084;19;20137;-75
2022/07/03 08:51:13;;;;;;;1.13;0.98;;;;;26.10;94447.00;;;;7392549;19;20129;-76
2022/07/03 08:53:49;;;;;;;1.55;0.80;;;;;26.20;94450.00;;;;7392441;19;20130;-75
2022/07/03 08:56:17;;;;;;;2.78;0.88;;;;;26.20;94452.00;;;;7391488;19;20173;-76
2022/07/03 08:58:44;;;;;;;0.73;0.70;;;;;26.50;94450.00;;;;7396116;19;20129;-76
2022/07/03 09:01:21;;;;;;;1.70;0.98;;;;;26.70;94457.00;;;;7389855;19;20148;-77
2022/07/03 09:03:50;;;;;;;1.08;0.98;;;;;26.80;94450.00;;;;7391611;19;20773;-75
2022/07/03 09:06:18;;;;;;;0.90;0.90;;;;;27.10;94453.00;;;;7394152;19;20124;-75
2022/07/03 09:09:00;;;;;;;1.35;1.05;;;;;27.10;94450.00;;;;7391277;19;20181;-76
2022/07/03 09:11:30;;;;;;;0.80;0.80;;;;;27.30;94454.00;;;;7389495;19;20250;-76
2022/07/03 09:14:06;;;;;;;2.80;0.95;;;;;27.40;94452.00;;;;7388698;19;20497;-76
2022/07/03 09:16:39;;;;;;;3.08;0.95;;;;;27.60;94452.00;;;;7392396;19;20148;-76
2022/07/03 09:19:14;;;;;;;0.90;0.90;;;;;27.60;94456.00;;;;7391229;19;20152;-76
2022/07/03 09:21:43;;;;;;;0.70;0.70;;;;;27.10;94448.00;;;;7390690;19;20129;-76
2022/07/03 09:24:11;;;;;;;1.20;0.93;;;;;26.70;94453.00;;;;7391498;19;20586;-75
2022/07/03 09:26:58;;;;;;;1.23;1.00;;;;;26.70;94452.00;;;;7394045;19;20117;-76
2022/07/03 09:29:26;;;;;;;0.90;0.90;;;;;27.10;94459.00;;;;7387869;19;20136;-75
2022/07/03 09:32:00;;;;;;;2.63;0.82;;;;;26.90;94451.00;;;;7390208;19;20195;-76
2022/07/03 09:34:28;;;;;;;1.67;1.00;;;;;26.90;94454.00;;;;7391307;19;20603;-75
2022/07/03 09:36:58;;;;;;;1.38;0.85;;;;;27.40;94450.00;;;;7392747;19;20522;-76
2022/07/03 09:39:36;;;;;;;1.13;0.82;;;;;27.10;94451.00;;;;7390488;19;20504;-75
2022/07/03 09:42:06;;;;;;;0.80;0.80;;;;;26.90;94449.00;;;;7389776;19;20205;-75
2022/07/03 09:44:41;;;;;;;0.88;0.82;;;;;27.00;94448.00;;;;7391624;19;20621;-75
2022/07/03 09:47:18;;;;;;;1.58;1.00;;;;;27.50;94443.00;;;;7389618;19;20161;-75
2022/07/03 09:49:55;;;;;;;2.85;1.00;;;;;27.80;94446.00;;;;7391991;19;20129;-76
2022/07/03 09:52:37;;;;;;;1.58;0.85;;;;;27.30;94448.00;;;;7401004;19;20133;-77
2022/07/03 09:55:13;;;;;;;3.42;1.05;;;;;27.30;94442.00;;;;7401129;19;20629;-76
2022/07/03 09:57:50;;;;;;;1.33;0.73;;;;;27.60;94445.00;;;;7399485;19;20132;-77
2022/07/03 10:00:24;;;;;;;1.05;0.90;;;;;27.90;94447.00;;;;7400688;19;20148;-76
2022/07/03 10:03:07;;;;;;;0.90;0.90;;;;;28.30;94442.00;;;;7402609;19;20128;-76
2022/07/03 10:05:42;;;;;;;0.90;0.80;;;;;27.50;94445.00;;;;7398840;19;20133;-75
2022/07/03 10:08:34;;;;;;;1.48;0.98;;;;;27.50;94445.00;;;;7394370;19;20630;-75
2022/07/03 10:11:05;;;;;;;1.73;0.95;;;;;27.60;94433.00;;;;7395548;19;20133;-75
2022/07/03 10:13:41;;;;;;;3.03;1.13;;;;;27.80;94441.00;;;;7392823;19;20646;-76
2022/07/03 10:16:12;;;;;;;1.20;1.00;;;;;28.20;94438.00;;;;7395951;19;20124;-75
2022/07/03 10:18:48;;;;;;;0.95;0.90;;;;;28.30;94442.00;;;;7399545;19;20124;-75
2022/07/03 10:21:19;;;;;;;1.10;1.00;;;;;27.70;94438.00;;;;7394685;19;20159;-76
2022/07/03 10:23:53;;;;;;;3.22;0.93;;;;;28.20;94437.00;;;;7395594;19;20139;-77
2022/07/03 10:26:21;;;;;;;1.20;0.85;;;;;28.60;94440.00;;;;7396176;19;20504;-76
2022/07/03 10:28:50;;;;;;;1.20;1.10;;;;;28.60;94443.00;;;;7391670;19;20212;-75
2022/07/03 10:31:27;;;;;;;1.35;1.00;;;;;28.30;94441.00;;;;7394919;19;20488;-77
2022/07/03 10:33:58;;;;;;;2.75;1.42;;;;;28.50;94441.00;;;;7387580;19;20128;-77
2022/07/03 10:36:36;;;;;;;1.38;1.02;;;;;28.40;94441.00;;;;7397143;19;20587;-74
2022/07/03 10:39:13;;;;;;;1.73;1.10;;;;;28.50;94443.00;;;;7395958;19;20121;-77
2022/07/03 10:45:08;;;;;;;0.98;0.90;;;;;29.10;94435.00;;;;7395579;19;20129;-76
2022/07/03 10:47:48;;;;;;;1.10;1.00;;;;;29.00;94438.00;;;;7394717;19;20594;-75
2022/07/03 10:50:17;;;;;;;1.17;0.90;;;;;28.30;94439.00;;;;7394434;19;20496;-75
2022/07/03 10:52:51;;;;;;;3.13;1.00;;;;;28.60;94443.00;;;;7393318;19;20148;-77
2022/07/03 10:55:20;;;;;;;1.08;1.00;;;;;28.40;94438.00;;;;7397307;19;20200;-76
2022/07/03 10:58:15;;;;;;;1.65;1.00;;;;;27.90;94437.00;;;;7395664;19;20121;-76
2022/07/03 11:00:58;;;;;;;2.92;0.90;;;;;28.30;94433.00;;;;7394954;19;20121;-77
2022/07/03 11:04:00;;;;;;;4.35;0.85;;;;;28.80;94423.00;;;;7393250;19;20166;-77
2022/07/03 11:06:44;;;;;;;3.95;0.90;;;;;29.30;94425.00;;;;7393927;19;20133;-76
2022/07/03 11:09:19;;;;;;;1.05;0.90;;;;;29.90;94433.00;;;;7391054;19;20168;-75
2022/07/03 11:11:59;;;;;;;1.23;1.00;;;;;30.00;94426.00;;;;7392020;19;20651;-74
2022/07/03 11:14:30;;;;;;;1.20;0.90;;;;;29.80;94425.00;;;;7386779;19;20590;-75
2022/07/03 11:17:21;;;;;;;2.50;1.00;;;;;29.40;94428.00;;;;7386858;19;20140;-76
2022/07/03 11:20:36;;;;;;;1.00;0.90;;;;;29.20;94428.00;;;;7386098;19;20153;-77
2022/07/03 11:22:50;;;;;;;1.25;1.00;;;;;29.30;94423.00;;;;7388168;19;20563;-75
2022/07/03 11:25:19;;;;;;;2.33;1.00;;;;;29.80;94421.00;;;;7386349;19;20204;-76
2022/07/03 11:27:54;;;;;;;1.70;1.00;;;;;30.00;94421.00;;;;7387880;19;20128;-75
2022/07/03 11:30:25;;;;;;;3.35;1.15;;;;;29.90;94417.00;;;;7387423;19;20650;-76
2022/07/03 11:32:58;;;;;;;4.80;1.15;;;;;29.80;94412.00;;;;7387860;19;20211;-75
2022/07/03 11:35:51;;;;;;;1.00;1.00;;;;;30.20;94403.00;;;;7388662;19;20155;-75
2022/07/03 11:38:27;;;;;;;4.25;1.30;;;;;30.20;94409.00;;;;7387341;19;20627;-74
2022/07/03 11:41:02;;;;;;;2.38;1.00;;;;;30.50;94412.00;;;;7388121;19;20131;-76
2022/07/03 11:43:29;;;;;;;2.67;0.90;;;;;29.90;94406.00;;;;7386043;19;20147;-75
2022/07/03 11:45:58;;;;;;;0.90;0.90;;;;;30.10;94397.00;;;;7386040;19;20138;-76
2022/07/03 11:48:33;;;;;;;4.38;1.10;;;;;30.00;94394.00;;;;7385732;19;20139;-76
2022/07/03 11:51:03;;;;;;;1.05;1.05;;;;;30.30;94405.00;;;;7387938;19;20136;-76
2022/07/03 11:53:34;;;;;;;2.00;1.20;;;;;30.30;94407.00;;;;7385932;19;20137;-75
2022/07/03 11:56:15;;;;;;;3.10;0.98;;;;;29.70;94401.00;;;;7386930;19;20637;-75
2022/07/03 11:58:45;;;;;;;2.63;1.10;;;;;29.80;94393.00;;;;7387227;19;20136;-75
2022/07/03 12:01:26;;;;;;;2.58;1.02;;;;;29.90;94391.00;;;;7386977;19;20135;-75
2022/07/03 12:04:13;;;;;;;2.78;1.00;;;;;30.20;94384.00;;;;7385421;19;20706;-75
2022/07/03 12:06:58;;;;;;;2.40;0.80;;;;;29.60;94384.00;;;;7386449;19;20200;-75
2022/07/03 12:09:41;;;;;;;1.70;0.90;;;;;29.60;94386.00;;;;7383988;19;20212;-76
2022/07/03 12:12:16;;;;;;;1.10;0.90;;;;;29.20;94383.00;;;;7383186;19;20625;-76
2022/07/03 12:14:48;;;;;;;2.28;1.08;;;;;29.70;94383.00;;;;7380599;19;20196;-76
2022/07/03 12:17:25;;;;;;;1.20;0.90;;;;;29.60;94381.00;;;;7383705;19;20479;-76
2022/07/03 12:20:01;;;;;;;1.17;1.00;;;;;29.70;94378.00;;;;7386839;19;20136;-75
2022/07/03 12:22:31;;;;;;;4.15;0.98;;;;;29.50;94389.00;;;;7387753;19;20204;-75
2022/07/03 12:25:07;;;;;;;1.90;1.27;;;;;30.00;94392.00;;;;7387507;19;20138;-75
2022/07/03 12:27:41;;;;;;;1.92;1.27;;;;;30.00;94412.00;;;;7385582;19;20643;-75
2022/07/03 12:30:27;;;;;;;1.10;1.10;;;;;30.10;94394.00;;;;7385312;19;20144;-76
2022/07/03 12:32:56;;;;;;;1.98;1.25;;;;;30.40;94409.00;;;;7384134;19;20622;-75
2022/07/03 12:35:30;;;;;;;1.52;1.20;;;;;30.30;94402.00;;;;7382548;19;20147;-75
2022/07/03 12:37:59;;;;;;;1.33;1.10;;;;;30.20;94402.00;;;;7384424;19;20145;-74
2022/07/03 12:40:28;;;;;;;1.17;1.00;;;;;30.10;94396.00;;;;7384188;19;20136;-75
2022/07/03 12:43:03;;;;;;;3.30;1.30;;;;;30.00;94401.00;;;;7384388;19;20590;-74
2022/07/03 12:45:31;;;;;;;1.30;1.20;;;;;30.00;94390.00;;;;7384693;19;20507;-76
2022/07/03 12:48:04;;;;;;;1.77;1.00;;;;;29.90;94382.00;;;;7386193;19;20587;-74
2022/07/03 12:50:52;;;;;;;1.50;1.20;;;;;30.10;94378.00;;;;7383790;19;20143;-75
2022/07/03 12:53:31;;;;;;;2.92;1.25;;;;;30.20;94374.00;;;;7387350;19;20650;-75
2022/07/03 12:56:07;;;;;;;1.33;1.00;;;;;30.30;94384.00;;;;7384198;19;20138;-77
2022/07/03 13:01:36;;;;;;;2.28;1.00;;;;;30.20;94373.00;;;;7384422;19;20132;-75
2022/07/03 13:04:14;;;;;;;1.38;1.27;;;;;30.30;94374.00;;;;7383467;19;20112;-75
2022/07/03 13:07:03;;;;;;;2.63;1.30;;;;;30.20;94367.00;;;;7385532;19;20660;-76
2022/07/03 13:09:41;;;;;;;2.72;1.25;;;;;29.80;94367.00;;;;7383137;19;20155;-75